• Join FlightAware (Why Join?)
  • Login
  • US Flag 
11:38AM EDT


 

Airport Tracker/Info


-or-


 

Live Flight TrackerFlight Track Log ✈ SKW4453 ✈ 21-Jul-2013 ✈ KLAX - KOAK

Flight Track Log - Related Links

Times and Time Zones

All times are in EDT time to prevent confusion due to time zone crossing. See the SKW4453 flight status page for this flight to view local times or setup timezone preferences in your user account.

Time Position Orientation Groundspeed Altitude Reporting Facility
EDT Latitude Longitude Course Direction KTS MPH feet Rate Location/Type
07:41PM 33.9500 -118.4833 342° North 208 239 1,700  Level Southern California TRACON
07:42PM 33.9597 -118.5794 277° West 264 304 4,500 2,520 Climbing Los Angeles Center
07:43PM 34.0021 -118.7020 320° Northwest  Level FlightAware Approximate
07:44PM 34.0847 -118.6622 34° Northeast  Level FlightAware Approximate
07:44PM 33.9858 -118.6775 288° West 284 327 7,500  Level Los Angeles Center
07:45PM 34.1761 -118.6120 22° Northeast  Level FlightAware Approximate
07:45PM 34.0542 -118.7078 340° North 284 327 8,400  Level Los Angeles Center
07:46PM 34.2748 -118.6000 North  Level FlightAware Approximate
07:46PM 34.1192 -118.6539 34° Northeast 271 312 10,000  Level Los Angeles Center
07:47PM 34.3639 -118.6456 342° North  Level FlightAware Approximate
07:47PM 34.1989 -118.6522 North 290 334 12,200  Level Los Angeles Center
07:48PM 34.2892 -118.6728 349° North 327 376 13,200 1,080 Climbing Los Angeles Center
07:49PM 34.3925 -118.6953 350° North 373 429 14,500 1,320 Climbing Los Angeles Center
07:50PM 34.4972 -118.7189 349° North 382 440 16,000 1,440 Climbing Los Angeles Center
07:51PM 34.6025 -118.7608 342° North 400 460 17,500 1,500 Climbing Los Angeles Center
07:52PM 34.7256 -118.8250 337° Northwest 402 463 19,200 1,500 Climbing Los Angeles Center
07:53PM 34.8281 -118.8881 333° Northwest 416 479 20,600 1,140 Climbing Los Angeles Center
07:54PM 34.9178 -118.9736 322° Northwest 422 486 21,600 960 Climbing Los Angeles Center
07:55PM 35.0067 -119.0611 321° Northwest 415 478 22,600 960 Climbing Los Angeles Center
07:56PM 35.0944 -119.1464 322° Northwest 406 467 23,600 960 Climbing Los Angeles Center
07:57PM 35.2019 -119.2514 321° Northwest 413 475 24,600 1,020 Climbing Los Angeles Center
07:58PM 35.2936 -119.3394 322° Northwest 418 481 25,800 1,260 Climbing Los Angeles Center
07:59PM 35.3861 -119.4314 321° Northwest 425 489 27,300 1,200 Climbing Los Angeles Center
08:00PM 35.4775 -119.5225 321° Northwest 426 490 28,300 960 Climbing Los Angeles Center
08:01PM 35.5725 -119.6167 321° Northwest 434 499 29,300 900 Climbing Los Angeles Center
08:02PM 35.6472 -119.6911 321° Northwest 443 510 29,900 360 Climbing Oakland Center
08:03PM 35.7467 -119.7903 321° Northwest 461 531 30,000  Climbing Oakland Center
08:04PM 35.8503 -119.8944 321° Northwest 480 552 30,000  Level Oakland Center
08:05PM 35.9542 -119.9983 321° Northwest 485 558 30,000  Level Oakland Center
08:06PM 36.0786 -120.1253 321° Northwest 487 560 30,000  Level Oakland Center
08:07PM 36.1806 -120.2275 321° Northwest 478 550 30,000  Level Oakland Center
08:08PM 36.2833 -120.3317 321° Northwest 479 551 30,000 -540 Level Oakland Center
08:09PM 36.3872 -120.4417 320° Northwest 490 564 29,000 -1,320 Descending Oakland Center
08:10PM 36.4911 -120.5442 322° Northwest 481 554 27,400 -1,560 Descending Oakland Center
08:11PM 36.5897 -120.6489 320° Northwest 470 541 25,900 -1,680 Descending Oakland Center
08:12PM 36.6878 -120.7517 320° Northwest 464 534 24,000 -2,040 Descending Oakland Center
08:13PM 36.7836 -120.8525 320° Northwest 454 522 21,800 -2,280 Descending Oakland Center
08:14PM 36.8742 -120.9600 316° Northwest 431 496 19,400 -2,400 Descending Oakland Center
08:15PM 36.9614 -121.0586 318° Northwest 423 487 17,000 -2,280 Descending Oakland Center
08:16PM 37.0511 -121.1614 318° Northwest 419 482 14,800 -2,220 Descending Oakland Center
08:17PM 37.1469 -121.2756 316° Northwest 411 473 12,600 -2,100 Descending Oakland Center
08:18PM 37.2283 -121.3703 317° Northwest 401 461 10,500 -1,320 Descending Oakland Center
08:19PM 37.2994 -121.4550 317° Northwest 352 405 10,000 -1,020 Descending Oakland Center
08:20PM 37.3606 -121.5233 318° Northwest 295 339 8,500 -1,440 Descending Oakland Center
08:21PM 37.4000 -121.5667 319° Northwest 290 334 7,700 -1,320 Descending Northern Cal TRACON
08:22PM 37.4333 -121.6500 297° West 278 320 6,500 -900 Descending Northern Cal TRACON
08:23PM 37.4833 -121.7333 307° West 284 327 6,000 -300 Descending Northern Cal TRACON
08:24PM 37.5167 -121.8167 297° West 261 300 6,000 -360 Level Northern Cal TRACON
08:25PM 37.5333 -121.9000 284° West 241 277 5,300 -960 Descending Northern Cal TRACON
08:26PM 37.5667 -121.9667 302° West 231 266 4,100 -900 Descending Northern Cal TRACON
08:27PM 37.6000 -122.0333 302° West 196 226 3,600 -540 Descending Northern Cal TRACON